sensor_id;sensor_type;location;lat;lon;timestamp;P1;durP1;ratioP1;P2;durP2;ratioP2
34144;SDS011;69555;53.014;8.886;2024-01-07T00:01:39;13.77;;;6.75;;
34144;SDS011;69555;53.014;8.886;2024-01-07T00:04:05;14.63;;;7.20;;
34144;SDS011;69555;53.014;8.886;2024-01-07T00:06:32;11.48;;;6.85;;
34144;SDS011;69555;53.014;8.886;2024-01-07T00:08:59;10.82;;;6.82;;
34144;SDS011;69555;53.014;8.886;2024-01-07T00:11:25;12.23;;;6.93;;
34144;SDS011;69555;53.014;8.886;2024-01-07T00:13:52;12.40;;;7.63;;
34144;SDS011;69555;53.014;8.886;2024-01-07T00:16:19;12.18;;;7.60;;
34144;SDS011;69555;53.014;8.886;2024-01-07T00:18:45;16.98;;;7.43;;
34144;SDS011;69555;53.014;8.886;2024-01-07T00:21:12;13.00;;;8.02;;
34144;SDS011;69555;53.014;8.886;2024-01-07T00:23:38;17.80;;;7.72;;
34144;SDS011;69555;53.014;8.886;2024-01-07T00:26:05;14.40;;;7.15;;
34144;SDS011;69555;53.014;8.886;2024-01-07T00:28:32;14.85;;;7.47;;
34144;SDS011;69555;53.014;8.886;2024-01-07T00:30:59;12.80;;;6.00;;
34144;SDS011;69555;53.014;8.886;2024-01-07T00:33:26;18.65;;;8.13;;
34144;SDS011;69555;53.014;8.886;2024-01-07T00:35:52;14.43;;;6.65;;
34144;SDS011;69555;53.014;8.886;2024-01-07T00:38:19;9.10;;;5.28;;
34144;SDS011;69555;53.014;8.886;2024-01-07T00:40:46;12.27;;;7.00;;
34144;SDS011;69555;53.014;8.886;2024-01-07T00:43:12;13.40;;;6.97;;
34144;SDS011;69555;53.014;8.886;2024-01-07T00:45:39;12.80;;;5.75;;
34144;SDS011;69555;53.014;8.886;2024-01-07T00:48:05;16.98;;;8.15;;
34144;SDS011;69555;53.014;8.886;2024-01-07T00:50:32;14.35;;;6.40;;
34144;SDS011;69555;53.014;8.886;2024-01-07T00:52:59;9.57;;;6.00;;
34144;SDS011;69555;53.014;8.886;2024-01-07T00:55:26;12.40;;;6.13;;
34144;SDS011;69555;53.014;8.886;2024-01-07T00:57:53;11.50;;;6.35;;
34144;SDS011;69555;53.014;8.886;2024-01-07T01:00:19;9.80;;;6.45;;
34144;SDS011;69555;53.014;8.886;2024-01-07T01:02:46;15.63;;;7.50;;
34144;SDS011;69555;53.014;8.886;2024-01-07T01:05:13;13.80;;;7.63;;
34144;SDS011;69555;53.014;8.886;2024-01-07T01:07:40;14.48;;;6.65;;
34144;SDS011;69555;53.014;8.886;2024-01-07T01:10:07;13.18;;;7.13;;
34144;SDS011;69555;53.014;8.886;2024-01-07T01:12:34;15.50;;;7.03;;
34144;SDS011;69555;53.014;8.886;2024-01-07T01:15:01;14.13;;;7.78;;
34144;SDS011;69555;53.014;8.886;2024-01-07T01:17:27;15.38;;;7.07;;
34144;SDS011;69555;53.014;8.886;2024-01-07T01:19:54;17.33;;;6.75;;
34144;SDS011;69555;53.014;8.886;2024-01-07T01:22:21;13.52;;;7.35;;
34144;SDS011;69555;53.014;8.886;2024-01-07T01:24:46;17.83;;;8.60;;
34144;SDS011;69555;53.014;8.886;2024-01-07T01:27:13;13.10;;;7.68;;
34144;SDS011;69555;53.014;8.886;2024-01-07T01:29:41;14.40;;;7.78;;
34144;SDS011;69555;53.014;8.886;2024-01-07T01:32:08;18.42;;;8.35;;
34144;SDS011;69555;53.014;8.886;2024-01-07T01:34:34;14.88;;;8.23;;
34144;SDS011;69555;53.014;8.886;2024-01-07T01:37:01;16.13;;;9.35;;
34144;SDS011;69555;53.014;8.886;2024-01-07T01:39:28;12.55;;;7.75;;
34144;SDS011;69555;53.014;8.886;2024-01-07T01:41:55;15.60;;;8.10;;
34144;SDS011;69555;53.014;8.886;2024-01-07T01:44:22;17.73;;;8.77;;
34144;SDS011;69555;53.014;8.886;2024-01-07T01:46:49;14.35;;;7.88;;
34144;SDS011;69555;53.014;8.886;2024-01-07T01:49:16;18.30;;;8.75;;
34144;SDS011;69555;53.014;8.886;2024-01-07T01:51:43;18.23;;;9.27;;
34144;SDS011;69555;53.014;8.886;2024-01-07T01:54:09;17.25;;;8.73;;
34144;SDS011;69555;53.014;8.886;2024-01-07T01:56:37;19.60;;;9.60;;
34144;SDS011;69555;53.014;8.886;2024-01-07T01:59:04;16.50;;;8.95;;
34144;SDS011;69555;53.014;8.886;2024-01-07T02:01:31;16.60;;;8.73;;
34144;SDS011;69555;53.014;8.886;2024-01-07T02:03:58;25.23;;;9.13;;
34144;SDS011;69555;53.014;8.886;2024-01-07T02:06:24;24.48;;;11.27;;
34144;SDS011;69555;53.014;8.886;2024-01-07T02:08:52;22.95;;;10.43;;
34144;SDS011;69555;53.014;8.886;2024-01-07T02:11:19;20.00;;;10.85;;
34144;SDS011;69555;53.014;8.886;2024-01-07T02:13:46;20.17;;;10.45;;
34144;SDS011;69555;53.014;8.886;2024-01-07T02:16:15;20.73;;;9.43;;
34144;SDS011;69555;53.014;8.886;2024-01-07T02:18:43;29.13;;;10.52;;
34144;SDS011;69555;53.014;8.886;2024-01-07T02:21:12;22.83;;;11.40;;
34144;SDS011;69555;53.014;8.886;2024-01-07T02:23:42;26.48;;;12.32;;
34144;SDS011;69555;53.014;8.886;2024-01-07T02:26:07;22.40;;;10.45;;
34144;SDS011;69555;53.014;8.886;2024-01-07T02:28:34;26.67;;;11.60;;
34144;SDS011;69555;53.014;8.886;2024-01-07T02:31:01;20.45;;;10.40;;
34144;SDS011;69555;53.014;8.886;2024-01-07T02:33:27;29.73;;;11.82;;
34144;SDS011;69555;53.014;8.886;2024-01-07T02:35:55;19.17;;;9.73;;
34144;SDS011;69555;53.014;8.886;2024-01-07T02:38:21;16.08;;;8.00;;
34144;SDS011;69555;53.014;8.886;2024-01-07T02:40:48;13.55;;;7.60;;
34144;SDS011;69555;53.014;8.886;2024-01-07T02:43:15;13.38;;;6.65;;
34144;SDS011;69555;53.014;8.886;2024-01-07T02:45:42;12.38;;;6.25;;
34144;SDS011;69555;53.014;8.886;2024-01-07T02:48:08;7.03;;;5.32;;
34144;SDS011;69555;53.014;8.886;2024-01-07T02:50:34;9.73;;;5.68;;
34144;SDS011;69555;53.014;8.886;2024-01-07T02:53:01;10.23;;;4.80;;
34144;SDS011;69555;53.014;8.886;2024-01-07T02:55:28;10.50;;;5.07;;
34144;SDS011;69555;53.014;8.886;2024-01-07T02:57:54;7.25;;;4.28;;
34144;SDS011;69555;53.014;8.886;2024-01-07T03:00:21;8.45;;;4.70;;
34144;SDS011;69555;53.014;8.886;2024-01-07T03:02:48;10.68;;;4.53;;
34144;SDS011;69555;53.014;8.886;2024-01-07T03:05:16;9.07;;;4.90;;
34144;SDS011;69555;53.014;8.886;2024-01-07T03:07:48;9.52;;;4.22;;
34144;SDS011;69555;53.014;8.886;2024-01-07T03:10:14;9.38;;;4.05;;
34144;SDS011;69555;53.014;8.886;2024-01-07T03:12:40;5.57;;;4.03;;
34144;SDS011;69555;53.014;8.886;2024-01-07T03:15:06;10.57;;;3.83;;
34144;SDS011;69555;53.014;8.886;2024-01-07T03:17:35;6.25;;;3.47;;
34144;SDS011;69555;53.014;8.886;2024-01-07T03:20:02;11.90;;;4.32;;
34144;SDS011;69555;53.014;8.886;2024-01-07T03:22:28;7.90;;;3.90;;
34144;SDS011;69555;53.014;8.886;2024-01-07T03:24:55;4.78;;;3.55;;
34144;SDS011;69555;53.014;8.886;2024-01-07T03:27:20;10.27;;;4.43;;
34144;SDS011;69555;53.014;8.886;2024-01-07T03:29:47;6.97;;;3.55;;
34144;SDS011;69555;53.014;8.886;2024-01-07T03:32:14;8.55;;;4.22;;
34144;SDS011;69555;53.014;8.886;2024-01-07T03:34:40;11.23;;;4.10;;
34144;SDS011;69555;53.014;8.886;2024-01-07T03:37:07;5.35;;;3.67;;
34144;SDS011;69555;53.014;8.886;2024-01-07T03:39:33;6.28;;;3.40;;
34144;SDS011;69555;53.014;8.886;2024-01-07T03:42:00;10.43;;;3.55;;
34144;SDS011;69555;53.014;8.886;2024-01-07T03:44:27;9.68;;;4.63;;
34144;SDS011;69555;53.014;8.886;2024-01-07T03:46:53;6.57;;;4.13;;
34144;SDS011;69555;53.014;8.886;2024-01-07T03:49:20;6.32;;;3.35;;
34144;SDS011;69555;53.014;8.886;2024-01-07T03:51:47;6.63;;;3.55;;
34144;SDS011;69555;53.014;8.886;2024-01-07T03:54:13;7.72;;;3.42;;
34144;SDS011;69555;53.014;8.886;2024-01-07T03:56:40;8.68;;;3.85;;
34144;SDS011;69555;53.014;8.886;2024-01-07T03:59:07;6.53;;;3.58;;
34144;SDS011;69555;53.014;8.886;2024-01-07T04:01:33;5.13;;;3.45;;
34144;SDS011;69555;53.014;8.886;2024-01-07T04:04:00;13.90;;;3.92;;
34144;SDS011;69555;53.014;8.886;2024-01-07T04:06:26;7.40;;;3.17;;
34144;SDS011;69555;53.014;8.886;2024-01-07T04:08:53;4.97;;;3.55;;
34144;SDS011;69555;53.014;8.886;2024-01-07T04:11:20;10.63;;;3.33;;
34144;SDS011;69555;53.014;8.886;2024-01-07T04:13:46;4.45;;;3.58;;
34144;SDS011;69555;53.014;8.886;2024-01-07T04:16:18;8.35;;;3.17;;
34144;SDS011;69555;53.014;8.886;2024-01-07T04:18:46;5.80;;;3.03;;
34144;SDS011;69555;53.014;8.886;2024-01-07T04:21:12;5.10;;;3.22;;
34144;SDS011;69555;53.014;8.886;2024-01-07T04:23:39;6.70;;;3.13;;
34144;SDS011;69555;53.014;8.886;2024-01-07T04:26:10;7.43;;;3.15;;
34144;SDS011;69555;53.014;8.886;2024-01-07T04:28:40;9.05;;;3.30;;
34144;SDS011;69555;53.014;8.886;2024-01-07T04:31:07;7.38;;;3.70;;
34144;SDS011;69555;53.014;8.886;2024-01-07T04:33:34;6.72;;;4.05;;
34144;SDS011;69555;53.014;8.886;2024-01-07T04:36:01;4.78;;;2.95;;
34144;SDS011;69555;53.014;8.886;2024-01-07T04:38:29;5.72;;;2.95;;
34144;SDS011;69555;53.014;8.886;2024-01-07T04:40:56;7.25;;;3.15;;
34144;SDS011;69555;53.014;8.886;2024-01-07T04:43:23;8.30;;;3.40;;
34144;SDS011;69555;53.014;8.886;2024-01-07T04:45:49;6.00;;;2.92;;
34144;SDS011;69555;53.014;8.886;2024-01-07T04:48:16;7.13;;;3.13;;
34144;SDS011;69555;53.014;8.886;2024-01-07T04:50:42;7.45;;;2.63;;
34144;SDS011;69555;53.014;8.886;2024-01-07T04:53:09;6.82;;;2.88;;
34144;SDS011;69555;53.014;8.886;2024-01-07T04:55:36;8.30;;;3.00;;
34144;SDS011;69555;53.014;8.886;2024-01-07T04:58:03;5.13;;;3.42;;
34144;SDS011;69555;53.014;8.886;2024-01-07T05:00:30;5.07;;;2.70;;
34144;SDS011;69555;53.014;8.886;2024-01-07T05:02:57;4.25;;;2.65;;
34144;SDS011;69555;53.014;8.886;2024-01-07T05:05:24;8.15;;;3.38;;
34144;SDS011;69555;53.014;8.886;2024-01-07T05:07:53;5.40;;;2.55;;
34144;SDS011;69555;53.014;8.886;2024-01-07T05:10:20;4.57;;;3.13;;
34144;SDS011;69555;53.014;8.886;2024-01-07T05:12:46;5.75;;;2.38;;
34144;SDS011;69555;53.014;8.886;2024-01-07T05:15:13;5.13;;;2.03;;
34144;SDS011;69555;53.014;8.886;2024-01-07T05:17:40;5.35;;;2.75;;
34144;SDS011;69555;53.014;8.886;2024-01-07T05:20:07;2.90;;;1.60;;
34144;SDS011;69555;53.014;8.886;2024-01-07T05:22:35;6.88;;;2.83;;
34144;SDS011;69555;53.014;8.886;2024-01-07T05:25:02;2.78;;;1.95;;
34144;SDS011;69555;53.014;8.886;2024-01-07T05:27:28;4.03;;;2.17;;
34144;SDS011;69555;53.014;8.886;2024-01-07T05:29:55;4.07;;;2.42;;
34144;SDS011;69555;53.014;8.886;2024-01-07T05:32:21;5.18;;;2.33;;
34144;SDS011;69555;53.014;8.886;2024-01-07T05:34:49;4.85;;;2.10;;
34144;SDS011;69555;53.014;8.886;2024-01-07T05:37:16;4.10;;;2.00;;
34144;SDS011;69555;53.014;8.886;2024-01-07T05:39:43;7.68;;;2.38;;
34144;SDS011;69555;53.014;8.886;2024-01-07T05:42:09;3.25;;;1.65;;
34144;SDS011;69555;53.014;8.886;2024-01-07T05:44:36;4.93;;;2.45;;
34144;SDS011;69555;53.014;8.886;2024-01-07T05:47:03;7.53;;;2.85;;
34144;SDS011;69555;53.014;8.886;2024-01-07T05:49:30;5.30;;;2.13;;
34144;SDS011;69555;53.014;8.886;2024-01-07T05:51:56;4.28;;;1.80;;
34144;SDS011;69555;53.014;8.886;2024-01-07T05:54:23;3.50;;;2.10;;
34144;SDS011;69555;53.014;8.886;2024-01-07T05:56:51;5.65;;;2.25;;
34144;SDS011;69555;53.014;8.886;2024-01-07T05:59:18;5.18;;;2.28;;
34144;SDS011;69555;53.014;8.886;2024-01-07T06:01:45;2.47;;;1.80;;
34144;SDS011;69555;53.014;8.886;2024-01-07T06:04:12;6.63;;;2.45;;
34144;SDS011;69555;53.014;8.886;2024-01-07T06:06:38;2.92;;;1.88;;
34144;SDS011;69555;53.014;8.886;2024-01-07T06:09:05;4.15;;;2.08;;
34144;SDS011;69555;53.014;8.886;2024-01-07T06:11:31;4.70;;;2.30;;
34144;SDS011;69555;53.014;8.886;2024-01-07T06:13:57;3.58;;;2.00;;
34144;SDS011;69555;53.014;8.886;2024-01-07T06:16:24;4.93;;;2.25;;
34144;SDS011;69555;53.014;8.886;2024-01-07T06:18:51;5.35;;;2.10;;
34144;SDS011;69555;53.014;8.886;2024-01-07T06:21:18;5.47;;;1.98;;
34144;SDS011;69555;53.014;8.886;2024-01-07T06:23:44;3.47;;;1.67;;
34144;SDS011;69555;53.014;8.886;2024-01-07T06:26:11;6.22;;;1.98;;
34144;SDS011;69555;53.014;8.886;2024-01-07T06:28:37;4.43;;;2.45;;
34144;SDS011;69555;53.014;8.886;2024-01-07T06:31:03;2.17;;;1.83;;
34144;SDS011;69555;53.014;8.886;2024-01-07T06:33:30;3.97;;;2.42;;
34144;SDS011;69555;53.014;8.886;2024-01-07T06:35:56;5.65;;;1.80;;
34144;SDS011;69555;53.014;8.886;2024-01-07T06:38:23;4.35;;;1.50;;
34144;SDS011;69555;53.014;8.886;2024-01-07T06:40:51;4.43;;;2.05;;
34144;SDS011;69555;53.014;8.886;2024-01-07T06:43:18;2.88;;;1.90;;
34144;SDS011;69555;53.014;8.886;2024-01-07T06:45:45;4.18;;;2.35;;
34144;SDS011;69555;53.014;8.886;2024-01-07T06:48:11;3.70;;;1.90;;
34144;SDS011;69555;53.014;8.886;2024-01-07T06:50:38;3.10;;;1.75;;
34144;SDS011;69555;53.014;8.886;2024-01-07T06:53:04;6.07;;;2.15;;
34144;SDS011;69555;53.014;8.886;2024-01-07T06:55:31;7.57;;;2.70;;
34144;SDS011;69555;53.014;8.886;2024-01-07T06:57:58;4.75;;;1.73;;
34144;SDS011;69555;53.014;8.886;2024-01-07T07:00:24;6.90;;;2.38;;
34144;SDS011;69555;53.014;8.886;2024-01-07T07:02:51;3.42;;;2.20;;
34144;SDS011;69555;53.014;8.886;2024-01-07T07:05:18;3.55;;;2.08;;
34144;SDS011;69555;53.014;8.886;2024-01-07T07:07:45;3.00;;;1.70;;
34144;SDS011;69555;53.014;8.886;2024-01-07T07:10:11;6.65;;;2.33;;
34144;SDS011;69555;53.014;8.886;2024-01-07T07:12:38;6.65;;;2.30;;
34144;SDS011;69555;53.014;8.886;2024-01-07T07:15:05;10.90;;;3.00;;
34144;SDS011;69555;53.014;8.886;2024-01-07T07:17:31;5.53;;;2.20;;
34144;SDS011;69555;53.014;8.886;2024-01-07T07:19:58;7.57;;;2.17;;
34144;SDS011;69555;53.014;8.886;2024-01-07T07:22:24;8.90;;;2.35;;
34144;SDS011;69555;53.014;8.886;2024-01-07T07:24:51;9.45;;;2.88;;
34144;SDS011;69555;53.014;8.886;2024-01-07T07:27:17;4.70;;;2.13;;
34144;SDS011;69555;53.014;8.886;2024-01-07T07:29:44;9.18;;;2.53;;
34144;SDS011;69555;53.014;8.886;2024-01-07T07:32:10;4.32;;;2.20;;
34144;SDS011;69555;53.014;8.886;2024-01-07T07:34:36;5.85;;;1.98;;
34144;SDS011;69555;53.014;8.886;2024-01-07T07:37:03;6.45;;;1.80;;
34144;SDS011;69555;53.014;8.886;2024-01-07T07:39:30;4.53;;;2.42;;
34144;SDS011;69555;53.014;8.886;2024-01-07T07:41:56;3.58;;;2.20;;
34144;SDS011;69555;53.014;8.886;2024-01-07T07:44:23;5.00;;;2.22;;
34144;SDS011;69555;53.014;8.886;2024-01-07T07:46:50;5.72;;;2.10;;
34144;SDS011;69555;53.014;8.886;2024-01-07T07:49:17;11.02;;;5.03;;
34144;SDS011;69555;53.014;8.886;2024-01-07T07:51:44;10.55;;;4.40;;
34144;SDS011;69555;53.014;8.886;2024-01-07T07:54:10;8.80;;;2.60;;
34144;SDS011;69555;53.014;8.886;2024-01-07T07:56:37;6.50;;;2.00;;
34144;SDS011;69555;53.014;8.886;2024-01-07T07:59:03;5.78;;;2.55;;
34144;SDS011;69555;53.014;8.886;2024-01-07T08:01:30;4.03;;;1.58;;
34144;SDS011;69555;53.014;8.886;2024-01-07T08:03:57;8.85;;;2.38;;
34144;SDS011;69555;53.014;8.886;2024-01-07T08:06:23;4.93;;;1.90;;
34144;SDS011;69555;53.014;8.886;2024-01-07T08:08:50;3.25;;;1.52;;
34144;SDS011;69555;53.014;8.886;2024-01-07T08:11:17;4.22;;;2.20;;
34144;SDS011;69555;53.014;8.886;2024-01-07T08:13:44;2.17;;;1.27;;
34144;SDS011;69555;53.014;8.886;2024-01-07T08:16:11;3.33;;;1.85;;
34144;SDS011;69555;53.014;8.886;2024-01-07T08:18:38;2.67;;;1.85;;
34144;SDS011;69555;53.014;8.886;2024-01-07T08:21:04;6.35;;;1.75;;
34144;SDS011;69555;53.014;8.886;2024-01-07T08:23:31;3.80;;;1.48;;
34144;SDS011;69555;53.014;8.886;2024-01-07T08:25:57;5.15;;;2.22;;
34144;SDS011;69555;53.014;8.886;2024-01-07T08:28:24;2.58;;;1.40;;
34144;SDS011;69555;53.014;8.886;2024-01-07T08:30:51;2.15;;;1.50;;
34144;SDS011;69555;53.014;8.886;2024-01-07T08:33:19;7.57;;;2.33;;
34144;SDS011;69555;53.014;8.886;2024-01-07T08:35:45;2.25;;;1.48;;
34144;SDS011;69555;53.014;8.886;2024-01-07T08:38:12;4.95;;;1.45;;
34144;SDS011;69555;53.014;8.886;2024-01-07T08:40:39;4.20;;;1.67;;
34144;SDS011;69555;53.014;8.886;2024-01-07T08:43:05;2.47;;;1.50;;
34144;SDS011;69555;53.014;8.886;2024-01-07T08:45:32;4.60;;;1.63;;
34144;SDS011;69555;53.014;8.886;2024-01-07T08:47:59;4.60;;;1.90;;
34144;SDS011;69555;53.014;8.886;2024-01-07T08:50:25;2.92;;;1.65;;
34144;SDS011;69555;53.014;8.886;2024-01-07T08:52:52;4.07;;;1.65;;
34144;SDS011;69555;53.014;8.886;2024-01-07T08:55:19;3.50;;;1.73;;
34144;SDS011;69555;53.014;8.886;2024-01-07T08:57:46;6.03;;;1.50;;
34144;SDS011;69555;53.014;8.886;2024-01-07T09:00:15;2.00;;;1.38;;
34144;SDS011;69555;53.014;8.886;2024-01-07T09:02:42;3.63;;;1.83;;
34144;SDS011;69555;53.014;8.886;2024-01-07T09:05:09;3.42;;;1.80;;
34144;SDS011;69555;53.014;8.886;2024-01-07T09:07:35;6.63;;;3.05;;
34144;SDS011;69555;53.014;8.886;2024-01-07T09:10:01;3.58;;;2.22;;
34144;SDS011;69555;53.014;8.886;2024-01-07T09:12:29;3.20;;;1.95;;
34144;SDS011;69555;53.014;8.886;2024-01-07T09:14:56;4.20;;;1.90;;
34144;SDS011;69555;53.014;8.886;2024-01-07T09:17:22;4.00;;;1.75;;
34144;SDS011;69555;53.014;8.886;2024-01-07T09:19:49;3.17;;;1.70;;
34144;SDS011;69555;53.014;8.886;2024-01-07T09:22:15;4.32;;;1.20;;
34144;SDS011;69555;53.014;8.886;2024-01-07T09:24:42;3.08;;;2.05;;
34144;SDS011;69555;53.014;8.886;2024-01-07T09:27:08;6.10;;;2.13;;
34144;SDS011;69555;53.014;8.886;2024-01-07T09:29:35;2.47;;;1.40;;
34144;SDS011;69555;53.014;8.886;2024-01-07T09:32:01;2.90;;;1.98;;
34144;SDS011;69555;53.014;8.886;2024-01-07T09:34:27;7.85;;;2.83;;
34144;SDS011;69555;53.014;8.886;2024-01-07T09:36:54;5.68;;;1.88;;
34144;SDS011;69555;53.014;8.886;2024-01-07T09:39:20;4.13;;;2.05;;
34144;SDS011;69555;53.014;8.886;2024-01-07T09:41:47;4.88;;;2.92;;
34144;SDS011;69555;53.014;8.886;2024-01-07T09:44:14;6.45;;;2.38;;
34144;SDS011;69555;53.014;8.886;2024-01-07T09:46:40;4.03;;;2.45;;
34144;SDS011;69555;53.014;8.886;2024-01-07T09:49:08;7.65;;;2.60;;
34144;SDS011;69555;53.014;8.886;2024-01-07T09:51:35;4.53;;;2.30;;
34144;SDS011;69555;53.014;8.886;2024-01-07T09:54:03;6.72;;;3.20;;
34144;SDS011;69555;53.014;8.886;2024-01-07T09:56:42;8.45;;;2.83;;
34144;SDS011;69555;53.014;8.886;2024-01-07T09:59:10;7.00;;;3.47;;
34144;SDS011;69555;53.014;8.886;2024-01-07T10:01:37;6.88;;;3.22;;
34144;SDS011;69555;53.014;8.886;2024-01-07T10:04:05;7.07;;;4.07;;
34144;SDS011;69555;53.014;8.886;2024-01-07T10:06:32;8.95;;;4.43;;
34144;SDS011;69555;53.014;8.886;2024-01-07T10:08:58;9.40;;;4.68;;
34144;SDS011;69555;53.014;8.886;2024-01-07T10:11:25;6.32;;;3.17;;
34144;SDS011;69555;53.014;8.886;2024-01-07T10:13:52;7.43;;;4.28;;
34144;SDS011;69555;53.014;8.886;2024-01-07T10:16:20;14.73;;;5.47;;
34144;SDS011;69555;53.014;8.886;2024-01-07T10:18:46;7.57;;;3.83;;
34144;SDS011;69555;53.014;8.886;2024-01-07T10:21:13;11.43;;;4.25;;
34144;SDS011;69555;53.014;8.886;2024-01-07T10:23:40;10.15;;;4.65;;
34144;SDS011;69555;53.014;8.886;2024-01-07T10:26:07;8.43;;;4.97;;
34144;SDS011;69555;53.014;8.886;2024-01-07T10:28:34;9.55;;;4.35;;
34144;SDS011;69555;53.014;8.886;2024-01-07T10:31:00;9.75;;;4.43;;
34144;SDS011;69555;53.014;8.886;2024-01-07T10:33:31;9.43;;;4.80;;
34144;SDS011;69555;53.014;8.886;2024-01-07T10:36:05;12.88;;;4.93;;
34144;SDS011;69555;53.014;8.886;2024-01-07T10:38:32;9.32;;;4.63;;
34144;SDS011;69555;53.014;8.886;2024-01-07T10:41:02;11.00;;;4.72;;
34144;SDS011;69555;53.014;8.886;2024-01-07T10:43:33;11.55;;;5.05;;
34144;SDS011;69555;53.014;8.886;2024-01-07T10:46:02;10.07;;;4.60;;
34144;SDS011;69555;53.014;8.886;2024-01-07T10:48:30;8.23;;;4.72;;
34144;SDS011;69555;53.014;8.886;2024-01-07T10:51:00;15.10;;;5.47;;
34144;SDS011;69555;53.014;8.886;2024-01-07T10:53:27;9.48;;;4.80;;
34144;SDS011;69555;53.014;8.886;2024-01-07T10:56:02;8.25;;;5.43;;
34144;SDS011;69555;53.014;8.886;2024-01-07T10:58:36;9.75;;;5.13;;
34144;SDS011;69555;53.014;8.886;2024-01-07T11:03:36;12.32;;;4.80;;
34144;SDS011;69555;53.014;8.886;2024-01-07T11:06:59;10.80;;;5.03;;
34144;SDS011;69555;53.014;8.886;2024-01-07T11:09:46;8.18;;;4.57;;
34144;SDS011;69555;53.014;8.886;2024-01-07T11:12:07;13.57;;;5.38;;
34144;SDS011;69555;53.014;8.886;2024-01-07T11:14:37;8.13;;;4.32;;
34144;SDS011;69555;53.014;8.886;2024-01-07T11:17:11;11.68;;;5.18;;
34144;SDS011;69555;53.014;8.886;2024-01-07T11:20:00;8.40;;;4.10;;
34144;SDS011;69555;53.014;8.886;2024-01-07T11:22:29;7.65;;;3.90;;
34144;SDS011;69555;53.014;8.886;2024-01-07T11:24:56;19.23;;;5.90;;
34144;SDS011;69555;53.014;8.886;2024-01-07T11:27:24;7.57;;;4.18;;
34144;SDS011;69555;53.014;8.886;2024-01-07T11:29:57;10.63;;;5.07;;
34144;SDS011;69555;53.014;8.886;2024-01-07T11:32:30;11.05;;;4.15;;
34144;SDS011;69555;53.014;8.886;2024-01-07T11:35:00;8.23;;;4.05;;
34144;SDS011;69555;53.014;8.886;2024-01-07T11:37:27;10.18;;;3.75;;
34144;SDS011;69555;53.014;8.886;2024-01-07T11:39:59;11.98;;;4.00;;
34144;SDS011;69555;53.014;8.886;2024-01-07T11:42:26;12.20;;;4.82;;
34144;SDS011;69555;53.014;8.886;2024-01-07T11:44:53;11.43;;;3.83;;
34144;SDS011;69555;53.014;8.886;2024-01-07T11:47:21;9.05;;;3.85;;
34144;SDS011;69555;53.014;8.886;2024-01-07T11:49:49;6.55;;;4.43;;
34144;SDS011;69555;53.014;8.886;2024-01-07T11:52:15;8.18;;;4.03;;
34144;SDS011;69555;53.014;8.886;2024-01-07T11:54:41;11.35;;;5.00;;
34144;SDS011;69555;53.014;8.886;2024-01-07T11:57:08;7.07;;;4.00;;
34144;SDS011;69555;53.014;8.886;2024-01-07T11:59:36;6.32;;;4.07;;
34144;SDS011;69555;53.014;8.886;2024-01-07T12:02:03;21.02;;;7.70;;
34144;SDS011;69555;53.014;8.886;2024-01-07T12:04:33;9.45;;;4.78;;
34144;SDS011;69555;53.014;8.886;2024-01-07T12:07:00;8.50;;;3.88;;
34144;SDS011;69555;53.014;8.886;2024-01-07T12:09:27;8.27;;;4.32;;
34144;SDS011;69555;53.014;8.886;2024-01-07T12:11:54;7.03;;;3.90;;
34144;SDS011;69555;53.014;8.886;2024-01-07T12:14:21;10.55;;;4.82;;
34144;SDS011;69555;53.014;8.886;2024-01-07T12:16:48;9.73;;;4.20;;
34144;SDS011;69555;53.014;8.886;2024-01-07T12:19:14;6.93;;;4.00;;
34144;SDS011;69555;53.014;8.886;2024-01-07T12:21:41;10.25;;;4.65;;
34144;SDS011;69555;53.014;8.886;2024-01-07T12:24:08;6.80;;;3.92;;
34144;SDS011;69555;53.014;8.886;2024-01-07T12:26:35;8.00;;;3.67;;
34144;SDS011;69555;53.014;8.886;2024-01-07T12:29:02;9.27;;;3.75;;
34144;SDS011;69555;53.014;8.886;2024-01-07T12:31:33;7.60;;;3.75;;
34144;SDS011;69555;53.014;8.886;2024-01-07T12:34:02;10.40;;;4.65;;
34144;SDS011;69555;53.014;8.886;2024-01-07T12:36:32;7.68;;;2.83;;
34144;SDS011;69555;53.014;8.886;2024-01-07T12:39:00;8.18;;;3.55;;
34144;SDS011;69555;53.014;8.886;2024-01-07T12:41:26;9.02;;;3.72;;
34144;SDS011;69555;53.014;8.886;2024-01-07T12:43:53;9.10;;;3.70;;
34144;SDS011;69555;53.014;8.886;2024-01-07T12:46:20;8.88;;;3.58;;
34144;SDS011;69555;53.014;8.886;2024-01-07T12:48:48;8.05;;;4.30;;
34144;SDS011;69555;53.014;8.886;2024-01-07T12:51:15;5.90;;;3.42;;
34144;SDS011;69555;53.014;8.886;2024-01-07T12:53:42;7.03;;;3.95;;
34144;SDS011;69555;53.014;8.886;2024-01-07T12:56:09;8.20;;;3.97;;
34144;SDS011;69555;53.014;8.886;2024-01-07T12:58:36;9.00;;;3.67;;
34144;SDS011;69555;53.014;8.886;2024-01-07T13:01:03;6.97;;;3.92;;
34144;SDS011;69555;53.014;8.886;2024-01-07T13:03:30;5.65;;;3.60;;
34144;SDS011;69555;53.014;8.886;2024-01-07T13:05:57;9.93;;;3.65;;
34144;SDS011;69555;53.014;8.886;2024-01-07T13:08:24;8.82;;;3.40;;
34144;SDS011;69555;53.014;8.886;2024-01-07T13:10:54;7.03;;;3.58;;
34144;SDS011;69555;53.014;8.886;2024-01-07T13:13:21;11.07;;;3.90;;
34144;SDS011;69555;53.014;8.886;2024-01-07T13:15:47;5.95;;;3.95;;
34144;SDS011;69555;53.014;8.886;2024-01-07T13:18:16;5.25;;;3.47;;
34144;SDS011;69555;53.014;8.886;2024-01-07T13:20:43;13.80;;;3.72;;
34144;SDS011;69555;53.014;8.886;2024-01-07T13:23:10;9.02;;;4.47;;
34144;SDS011;69555;53.014;8.886;2024-01-07T13:25:37;9.30;;;4.38;;
34144;SDS011;69555;53.014;8.886;2024-01-07T13:28:03;11.95;;;4.72;;
34144;SDS011;69555;53.014;8.886;2024-01-07T13:30:30;5.78;;;3.67;;
34144;SDS011;69555;53.014;8.886;2024-01-07T13:32:57;12.65;;;4.88;;
34144;SDS011;69555;53.014;8.886;2024-01-07T13:35:24;7.50;;;4.72;;
34144;SDS011;69555;53.014;8.886;2024-01-07T13:37:51;7.78;;;4.93;;
34144;SDS011;69555;53.014;8.886;2024-01-07T13:40:18;8.30;;;4.45;;
34144;SDS011;69555;53.014;8.886;2024-01-07T13:42:45;7.88;;;4.50;;
34144;SDS011;69555;53.014;8.886;2024-01-07T13:45:12;8.45;;;5.15;;
34144;SDS011;69555;53.014;8.886;2024-01-07T13:47:39;7.63;;;3.88;;
34144;SDS011;69555;53.014;8.886;2024-01-07T13:50:07;6.95;;;4.13;;
34144;SDS011;69555;53.014;8.886;2024-01-07T13:52:35;12.82;;;4.18;;
34144;SDS011;69555;53.014;8.886;2024-01-07T13:55:02;8.80;;;4.13;;
34144;SDS011;69555;53.014;8.886;2024-01-07T13:57:29;9.60;;;4.38;;
34144;SDS011;69555;53.014;8.886;2024-01-07T13:59:57;8.50;;;3.78;;
34144;SDS011;69555;53.014;8.886;2024-01-07T14:02:23;7.90;;;5.03;;
34144;SDS011;69555;53.014;8.886;2024-01-07T14:04:50;14.63;;;4.70;;
34144;SDS011;69555;53.014;8.886;2024-01-07T14:07:17;5.88;;;3.20;;
34144;SDS011;69555;53.014;8.886;2024-01-07T14:09:47;10.27;;;3.95;;
34144;SDS011;69555;53.014;8.886;2024-01-07T14:12:14;9.30;;;4.72;;
34144;SDS011;69555;53.014;8.886;2024-01-07T14:14:40;9.38;;;4.15;;
34144;SDS011;69555;53.014;8.886;2024-01-07T14:17:07;6.32;;;4.45;;
34144;SDS011;69555;53.014;8.886;2024-01-07T14:19:34;12.38;;;4.93;;
34144;SDS011;69555;53.014;8.886;2024-01-07T14:22:01;7.75;;;4.13;;
34144;SDS011;69555;53.014;8.886;2024-01-07T14:24:28;7.82;;;4.30;;
34144;SDS011;69555;53.014;8.886;2024-01-07T14:26:55;6.68;;;3.88;;
34144;SDS011;69555;53.014;8.886;2024-01-07T14:29:21;7.25;;;3.80;;
34144;SDS011;69555;53.014;8.886;2024-01-07T14:31:48;11.95;;;4.85;;
34144;SDS011;69555;53.014;8.886;2024-01-07T14:34:15;9.77;;;4.95;;
34144;SDS011;69555;53.014;8.886;2024-01-07T14:36:42;7.97;;;5.00;;
34144;SDS011;69555;53.014;8.886;2024-01-07T14:39:09;7.78;;;4.30;;
34144;SDS011;69555;53.014;8.886;2024-01-07T14:41:36;12.57;;;4.55;;
34144;SDS011;69555;53.014;8.886;2024-01-07T14:44:03;14.40;;;5.72;;
34144;SDS011;69555;53.014;8.886;2024-01-07T14:46:30;10.35;;;5.85;;